Salmon Gums RES. Station, Western Australia

3:57 AM AWST on July 27, 2016 (GMT +0800)
Esperance | | Change Station

Elev 469 ft 33.68 °S, 121.82 °E | Updated 27 minutes ago

Overcast
Overcast
54 °F
Feels Like 54 °F
N
6
Wind Variable Wind from WNW

Today
High -- | Low -- °F
--% Chance of Precip.
Yesterday
High -- | Low -- °F
Precip. -- in
Pressure 30.33 in
Visibility -9999.0 miles
Clouds Mostly Cloudy 200 ft
Mostly Cloudy 800 ft
Overcast 1500 ft
Dew Point 52 °F
Humidity 94%
Rainfall 0.00 in
Snow Depth Not available.
6:47 AM 5:12 PM
Waning Gibbous, 51% visible
SPECI YESP 261930Z AUTO 29005KT 4400 // BKN002 BKN008 OVC015 12/11 Q1027
Pressure 30.33 in
Visibility -9999.0 miles
Clouds Mostly Cloudy 200 ft
Mostly Cloudy 800 ft
Overcast 1500 ft
Dew Point 52 °F
Humidity 94%
Rainfall 0.00 in
Snow Depth Not available.
6:47 AM 5:12 PM
Waning Gibbous, 51% visible
SPECI YESP 261930Z AUTO 29005KT 4400 // BKN002 BKN008 OVC015 12/11 Q1027

10-Day Weather Forecast

Almanac

Astronomy

Jul. 27, 2016 Rise Set
Actual Time
Civil Twilight
Nautical Twilight
Astronomical Twilight
Moon
Length of Visible Light
Length of Day
Tomorrow will be .
, % of the Moon is Illuminated

Today's Extremes

Country Highs Country Lows

Community

WunderPhotos

Upload Photos

1,927,667 photos uploaded!

WunderBlog® & News

Nearby

Air Quality

  Air Quality AQ Index Pollutant
Not available.

Snow Depth

Station Depth Elevation

Earthquake Activity

City Distance Mag. Time & Date
Minimum magnitude displayed is 2.5.

Coastal Water Temperatures

Place Temperature

Stations

Nearby Weather Stations

Station Location Temp. Windchill Dew Point Humidity Wind Precip. Elev Updated Type